Nearby METAR Reports

 

KSJC - San Jose, California, USA
Distance from station: KO 14km
Päivitetty: 13/04/2024 03:53
Enimmäkseen pilvistä
Enimmäkseen pilvistä
 Tuulen suunta EKA
Tuuli: EKA 26 km/h, Puuskatuuli: 46 km/h
Lämpötila: 16°C
Kastepiste: 6°C
Kosteus: 52%
Ilmanpaine: 1009.1 hPa
Clouds: Enimmäkseen pilvistä
Visibility: 16 km
Cloud details: Few Clouds 701 m
Puolipilvistä 1036 m
Enimmäkseen pilvistä 3353 m
2024/04/13 01:53 KSJC 130153Z 16014G25KT 10SM FEW023 SCT034 BKN110 16/06 A2980 RMK AO2 PK WND 16028/0137 SLP089 T01560061
KNUQ - Moffett Nas/Mtn, California, USA
Distance from station: P 14km
Päivitetty: 13/04/2024 04:35
Selkeätä
Selkeätä
 Tuulen suunta ELO
Tuuli: ELO 22 km/h, Puuskatuuli: 31 km/h
Lämpötila: 14°C
Kastepiste: 6°C
Kosteus: 59%
Ilmanpaine: 1008.8 hPa
Clouds: Selkeätä
Visibility: 16 km
2024/04/13 02:35 KNUQ 130235Z AUTO 21012G17KT 10SM CLR 14/06 A2979 RMK AO2
KPAO - Palo Alto, California, USA
Distance from station: PLU 23km
Päivitetty: 13/04/2024 03:47
Puolipilvistä
Puolipilvistä
 Tuulen suunta ELO
Tuuli: ELO 28 km/h, Puuskatuuli: 39 km/h
Lämpötila: 14°C
Kastepiste: 6°C
Kosteus: 59%
Ilmanpaine: 1008.8 hPa
Clouds: Puolipilvistä
Visibility: 16 km
Cloud details: Puolipilvistä 1219 m
2024/04/13 01:47 KPAO 130147Z 21015G21KT 10SM SCT040 14/06 A2979
 
KRHV - San Jose/Reid, California, USA
Distance from station: IKO 19km
Päivitetty: 13/04/2024 03:57
Puolipilvistä
Puolipilvistä
 Tuulen suunta EKA
Tuuli: EKA 19 km/h
Lämpötila: 14°C
Kastepiste: 7°C
Kosteus: 63%
Ilmanpaine: 1009.5 hPa
Clouds: Puolipilvistä
Visibility: 16 km
Cloud details: Puolipilvistä 1524 m
2024/04/13 01:57 KRHV 130157Z 15010KT 10SM SCT050 14/07 A2981
KOAK - Oakland, California, USA
Distance from station: PLU 50km
Päivitetty: 13/04/2024 03:53
Enimmäkseen pilvistä
Enimmäkseen pilvistä
 Tuulen suunta E
Tuuli: E 28 km/h
Lämpötila: 14°C
Kastepiste: 7°C
Kosteus: 63%
Ilmanpaine: 1008.8 hPa
Clouds: Enimmäkseen pilvistä
Visibility: 16 km
Cloud details: Puolipilvistä 1158 m
Enimmäkseen pilvistä 4572 m
2024/04/13 01:53 KOAK 130153Z 18015KT 10SM SCT038 BKN150 14/07 A2979 RMK AO2 PK WND 22026/0130 SLP086 T01440072
KSQL - San Carlos Airpo, California, USA
Distance from station: LU 34km
Päivitetty: 13/04/2024 03:50
Puolipilvistä
Puolipilvistä
 Tuulen suunta EKA
Tuuli: EKA 28 km/h, Puuskatuuli: 41 km/h
Lämpötila: 14°C
Kastepiste: 7°C
Kosteus: 63%
Ilmanpaine: 1008.8 hPa
Clouds: Puolipilvistä
Visibility: 16 km
Cloud details: Puolipilvistä 1006 m
2024/04/13 01:50 KSQL 130150Z 16015G22KT 10SM SCT033 14/07 A2979
 
KSFO - San Francisco, California, USA
Distance from station: LU 49km
Päivitetty: 13/04/2024 03:56
Enimmäkseen pilvistä
Enimmäkseen pilvistä
 Tuulen suunta E
Tuuli: E 30 km/h, Puuskatuuli: 46 km/h
Lämpötila: 14°C
Kastepiste: 8°C
Kosteus: 67%
Ilmanpaine: 1008.8 hPa
Clouds: Enimmäkseen pilvistä
Visibility: 16 km
Cloud details: Few Clouds 518 m
Enimmäkseen pilvistä 1128 m
Enimmäkseen pilvistä 3658 m
2024/04/13 01:56 KSFO 130156Z 19016G25KT 10SM FEW017 BKN037 BKN120 14/08 A2979 RMK AO2 PK WND 20030/0134 SLP086 T01390078
KE16 - San Martin, California, USA
Distance from station: IKA 43km
Päivitetty: 13/04/2024 04:15
Vaihetelvaa
Vaihetelvaa
 Tuulen suunta LLO
Tuuli: LLO 13 km/h, Puuskatuuli: 28 km/h
Lämpötila: 13°C
Kastepiste: 7°C
Kosteus: 67%
Ilmanpaine: 1010.5 hPa
Clouds: Vaihetelvaa
Visibility: 14 km
Cloud details: Vaihetelvaa 975 m
2024/04/13 02:15 KE16 130215Z AUTO 25007G15KT 210V290 9SM OVC032 13/07 A2984 RMK AO2 PWINO PNO
KWVI - Watsonville, California, USA
Distance from station: EKA 44km
Päivitetty: 13/04/2024 04:27
Vaihetelvaa
Vaihetelvaa
 Tuulen suunta L
Tuuli: L 19 km/h, Puuskatuuli: 33 km/h
Lämpötila: 12°C
Kastepiste: 9°C
Kosteus: 82%
Ilmanpaine: 1010.2 hPa
Clouds: Vaihetelvaa
Visibility: 16 km
Cloud details: Enimmäkseen pilvistä 457 m
Vaihetelvaa 975 m
2024/04/13 02:27 KWVI 130227Z AUTO 26010G18KT 10SM BKN015 OVC032 12/09 A2983 RMK AO2 T01220094
 
KHAF - Half Moon Bay, California, USA
Distance from station: LLU 50km
Päivitetty: 13/04/2024 04:35
Mist, Vaihetelvaa
Mist, Vaihetelvaa
 Tuulen suunta E
Tuuli: E 26 km/h
Lämpötila: 12°C
Kastepiste: 11°C
Kosteus: 94%
Ilmanpaine: 1009.1 hPa
Yhteenveto: Mist
Clouds: Vaihetelvaa
Visibility: 6 km
Cloud details: Enimmäkseen pilvistä 762 m
Vaihetelvaa 914 m
2024/04/13 02:35 KHAF 130235Z AUTO 18014KT 4SM BR BKN025 OVC030 12/11 A2980 RMK AO2
KHWD - Hayward, California, USA
Distance from station: P 44km
Päivitetty: 13/04/2024 03:54
Enimmäkseen pilvistä
Enimmäkseen pilvistä
 Tuulen suunta ELO
Tuuli: ELO 26 km/h, Puuskatuuli: 41 km/h
Lämpötila: 15°C
Kastepiste: 7°C
Kosteus: 59%
Ilmanpaine: 1008.5 hPa
Clouds: Enimmäkseen pilvistä
Visibility: 16 km
Cloud details: Enimmäkseen pilvistä 1219 m
2024/04/13 01:54 KHWD 130154Z 21014G22KT 10SM BKN040 15/07 A2978 RMK AO2 SLP093 T01500067
KLVK - Livermore, California, USA
Distance from station: PKO 51km
Päivitetty: 13/04/2024 03:53
Selkeätä
Selkeätä
 Tuulen suunta LLO
Tuuli: LLO 37 km/h, Puuskatuuli: 50 km/h
Lämpötila: 14°C
Kastepiste: 7°C
Kosteus: 63%
Ilmanpaine: 1008.1 hPa
Clouds: Selkeätä
Visibility: 16 km
2024/04/13 01:53 KLVK 130153Z 24020G27KT 10SM CLR 14/07 A2977 RMK AO2 PK WND 23027/0152 SLP078 T01440067